Time;durP1;ratioP1;P1;durP2;ratioP2;P2;SDS_P1;SDS_P2;PMS_P1;PMS_P2;Temp;Humidity;BMP_temperature;BMP_pressure;BME280_temperature;BME280_humidity;BME280_pressure;Samples;Min_cycle;Max_cycle;Signal;HPM_P1;HPM_P2
2022/11/09 00:01:37;;;;;;;35.92;21.98;;;;;;;9.68;72.38;95379.59;5039172;28;20033;-70
2022/11/09 00:04:03;;;;;;;31.50;21.42;;;;;;;9.67;72.53;95385.75;5032951;28;20037;-70
2022/11/09 00:06:29;;;;;;;31.70;21.55;;;;;;;9.62;72.45;95386.03;5032798;28;20495;-70
2022/11/09 00:08:54;;;;;;;29.90;20.77;;;;;;;9.69;72.25;95388.22;5049404;28;20033;-70
2022/11/09 00:11:20;;;;;;;27.02;19.42;;;;;;;9.60;71.59;95376.72;5049701;28;20033;-70
2022/11/09 00:13:46;;;;;;;29.25;20.08;;;;;;;9.59;72.02;95390.63;5049228;28;20036;-70
2022/11/09 00:16:14;;;;;;;29.08;19.58;;;;;;;9.52;72.05;95394.56;5032862;28;20033;-70
2022/11/09 00:18:44;;;;;;;27.45;19.23;;;;;;;9.43;71.57;95390.84;5049281;28;20033;-70
2022/11/09 00:21:18;;;;;;;29.75;19.17;;;;;;;9.40;71.76;95397.06;5033508;28;20036;-70
2022/11/09 00:23:43;;;;;;;30.92;20.23;;;;;;;9.36;71.68;95393.06;5033238;28;20048;-70
2022/11/09 00:26:09;;;;;;;28.27;19.70;;;;;;;9.32;72.03;95394.19;5032838;28;20137;-70
2022/11/09 00:28:35;;;;;;;26.98;18.73;;;;;;;9.24;71.89;95393.88;5032729;28;20037;-70
2022/11/09 00:31:06;;;;;;;27.52;19.48;;;;;;;9.12;72.35;95377.41;5032967;28;20110;-70
2022/11/09 00:33:31;;;;;;;27.65;19.38;;;;;;;9.20;72.28;95389.03;5049257;28;20052;-70
2022/11/09 00:35:57;;;;;;;30.40;20.20;;;;;;;9.17;72.59;95384.88;5049233;28;20421;-70
2022/11/09 00:38:22;;;;;;;30.88;21.00;;;;;;;9.18;72.96;95386.53;5050559;28;20037;-70
2022/11/09 00:40:48;;;;;;;32.78;21.05;;;;;;;9.15;73.50;95386.75;5049074;28;20396;-70
2022/11/09 00:43:13;;;;;;;32.17;21.33;;;;;;;9.17;73.74;95387.47;5032557;28;20048;-70
2022/11/09 00:45:39;;;;;;;32.38;20.63;;;;;;;9.22;73.76;95384.53;5061930;28;20032;-70
2022/11/09 00:48:05;;;;;;;30.45;21.63;;;;;;;9.13;73.73;95367.84;5069027;28;20046;-70
2022/11/09 00:50:31;;;;;;;32.72;20.90;;;;;;;9.22;73.88;95382.81;5069041;28;20035;-70
2022/11/09 00:52:56;;;;;;;35.78;22.20;;;;;;;9.21;74.11;95377.72;5057115;28;20541;-70
2022/11/09 00:55:22;;;;;;;32.97;22.08;;;;;;;9.24;73.90;95375.72;5050078;28;20033;-71
2022/11/09 00:57:49;;;;;;;32.22;21.88;;;;;;;9.20;75.02;95376.88;5050210;28;20029;-69
2022/11/09 01:00:18;;;;;;;33.63;21.95;;;;;;;9.13;74.44;95347.94;5049022;28;20025;-70
2022/11/09 01:02:43;;;;;;;34.30;21.48;;;;;;;9.32;74.78;95375.22;5049612;28;20380;-70
2022/11/09 01:05:09;;;;;;;32.40;20.55;;;;;;;9.43;74.46;95380.47;5051436;28;20087;-70
2022/11/09 01:07:36;;;;;;;32.28;20.83;;;;;;;9.40;74.12;95380.69;5053670;28;20507;-70
2022/11/09 01:10:01;;;;;;;35.60;23.70;;;;;;;9.45;73.61;95380.38;5066701;28;20056;-70
2022/11/09 01:12:27;;;;;;;38.83;23.83;;;;;;;9.45;73.26;95388.16;5074084;28;20028;-70
2022/11/09 01:14:52;;;;;;;35.72;24.20;;;;;;;9.37;73.38;95379.16;5072400;28;20040;-70
2022/11/09 01:17:17;;;;;;;35.28;23.60;;;;;;;9.30;73.62;95364.09;5054742;28;20025;-70
2022/11/09 01:19:43;;;;;;;32.25;23.10;;;;;;;9.51;72.97;95377.38;5035646;28;20037;-70
2022/11/09 01:22:08;;;;;;;31.80;21.48;;;;;;;9.41;73.57;95371.97;5069063;28;20024;-70
2022/11/09 01:24:34;;;;;;;33.53;20.35;;;;;;;9.41;73.44;95379.75;5035592;28;20499;-70
2022/11/09 01:26:59;;;;;;;34.47;22.27;;;;;;;9.47;73.32;95378.50;5035719;28;20028;-70
2022/11/09 01:29:25;;;;;;;29.67;20.60;;;;;;;9.36;74.04;95371.47;5053319;28;20044;-70
2022/11/09 01:31:50;;;;;;;35.17;24.23;;;;;;;9.40;73.51;95359.97;5052575;28;20041;-70
2022/11/09 01:34:16;;;;;;;36.17;23.60;;;;;;;9.50;73.47;95376.53;5051826;28;20550;-70
2022/11/09 01:36:41;;;;;;;41.05;28.17;;;;;;;9.34;73.51;95376.75;5051903;28;20086;-70
2022/11/09 01:39:07;;;;;;;46.47;29.95;;;;;;;9.23;73.60;95363.72;5035317;28;20025;-70
2022/11/09 01:41:32;;;;;;;46.70;29.30;;;;;;;9.37;73.64;95370.53;5052022;28;20029;-70
2022/11/09 01:44:11;;;;;;;38.38;27.80;;;;;;;9.49;73.25;95369.69;5051990;28;20461;-70
2022/11/09 01:46:49;;;;;;;39.80;28.42;;;;;;;9.46;73.83;95376.84;5061978;28;20040;-70
2022/11/09 01:49:25;;;;;;;40.20;27.00;;;;;;;9.47;73.61;95374.16;5072980;28;20065;-70
2022/11/09 01:51:54;;;;;;;46.03;31.05;;;;;;;9.38;73.78;95370.41;5071951;28;20127;-70
2022/11/09 01:54:24;;;;;;;44.10;30.05;;;;;;;9.29;73.90;95365.88;5071914;28;20044;-70
2022/11/09 01:56:50;;;;;;;46.35;30.83;;;;;;;9.25;73.64;95373.97;5055330;28;20036;-70
2022/11/09 01:59:21;;;;;;;42.45;29.45;;;;;;;9.19;73.94;95357.06;5054200;28;20028;-70
2022/11/09 02:01:47;;;;;;;42.28;28.60;;;;;;;9.26;74.17;95363.50;5068090;28;20024;-70
2022/11/09 02:04:37;;;;;;;45.40;29.58;;;;;;;9.35;73.71;95372.41;5054955;28;20658;-70
2022/11/09 02:07:02;;;;;;;56.10;34.88;;;;;;;9.46;72.70;95371.66;5069704;28;20422;-70
2022/11/09 02:09:43;;;;;;;52.65;33.33;;;;;;;9.39;72.94;95371.28;5071348;28;20039;-70
2022/11/09 02:12:08;;;;;;;50.33;32.63;;;;;;;9.27;73.25;95362.56;5073040;28;20021;-70
2022/11/09 02:14:34;;;;;;;44.47;30.50;;;;;;;9.34;73.51;95371.56;5068694;28;20059;-70
2022/11/09 02:16:59;;;;;;;44.42;30.42;;;;;;;9.34;73.24;95363.81;5053545;28;20025;-70
2022/11/09 02:19:25;;;;;;;46.58;31.35;;;;;;;9.37;73.62;95376.56;5054506;28;20087;-70
2022/11/09 02:21:50;;;;;;;41.33;30.27;;;;;;;9.37;73.42;95379.16;5072633;28;20398;-70
2022/11/09 02:24:16;;;;;;;43.80;28.88;;;;;;;9.18;73.29;95365.78;5071137;28;20059;-70
2022/11/09 02:26:48;;;;;;;46.22;29.77;;;;;;;9.11;73.81;95382.69;5071259;28;20032;-70
2022/11/09 02:29:28;;;;;;;43.97;28.85;;;;;;;8.99;74.11;95366.19;5072218;28;20426;-70
2022/11/09 02:31:59;;;;;;;44.15;29.15;;;;;;;9.06;74.06;95387.38;5071079;28;20048;-70
2022/11/09 02:34:25;;;;;;;42.88;28.33;;;;;;;9.07;74.35;95383.84;5054295;28;20036;-70
2022/11/09 02:36:50;;;;;;;41.33;26.95;;;;;;;9.22;73.85;95392.31;5071055;28;20063;-69
2022/11/09 02:39:17;;;;;;;41.60;27.35;;;;;;;9.07;74.10;95383.84;5072000;28;20029;-69
2022/11/09 02:41:46;;;;;;;43.22;27.40;;;;;;;9.02;74.02;95375.53;5054339;28;20031;-69
2022/11/09 02:44:12;;;;;;;42.65;28.10;;;;;;;9.00;74.26;95377.41;5054303;28;20028;-70
2022/11/09 02:46:38;;;;;;;41.75;26.85;;;;;;;8.94;73.86;95384.69;5070760;28;20033;-70
2022/11/09 02:49:03;;;;;;;40.22;25.88;;;;;;;8.93;74.05;95384.75;5053965;28;20037;-70
2022/11/09 02:51:29;;;;;;;40.90;25.77;;;;;;;8.97;73.85;95387.97;5053921;28;20032;-70
2022/11/09 02:53:54;;;;;;;38.25;25.05;;;;;;;8.67;74.21;95356.25;5071607;28;20040;-70
2022/11/09 02:56:20;;;;;;;38.88;23.85;;;;;;;8.85;73.83;95384.44;5071603;28;20090;-69
2022/11/09 02:58:45;;;;;;;37.53;25.23;;;;;;;8.84;73.99;95382.81;5053834;28;20146;-70
2022/11/09 03:01:11;;;;;;;40.83;25.58;;;;;;;8.67;74.04;95371.78;5053934;28;20106;-70
2022/11/09 03:03:36;;;;;;;41.55;26.60;;;;;;;8.58;74.38;95387.09;5071449;28;20036;-70
2022/11/09 03:06:02;;;;;;;39.25;24.98;;;;;;;8.58;74.06;95387.94;5087111;28;20025;-70
2022/11/09 03:08:28;;;;;;;40.20;25.67;;;;;;;8.61;73.66;95392.94;5053643;28;20024;-70
2022/11/09 03:10:53;;;;;;;34.17;22.83;;;;;;;8.56;73.69;95389.81;5053542;28;20445;-70
2022/11/09 03:13:18;;;;;;;35.05;22.23;;;;;;;8.29;73.30;95384.63;5071204;28;20029;-69
2022/11/09 03:15:44;;;;;;;33.72;21.88;;;;;;;8.31;73.54;95392.31;5070408;28;20040;-69
2022/11/09 03:18:09;;;;;;;34.25;21.88;;;;;;;8.14;73.38;95390.81;5053331;28;20032;-70
2022/11/09 03:20:35;;;;;;;32.50;20.35;;;;;;;8.05;73.26;95403.41;5071214;28;20040;-69
2022/11/09 03:23:00;;;;;;;29.15;20.33;;;;;;;7.94;73.22;95387.72;5071220;28;20406;-70
2022/11/09 03:25:26;;;;;;;31.80;20.92;;;;;;;7.98;73.23;95394.34;5053184;28;20028;-69
2022/11/09 03:27:59;;;;;;;33.53;19.88;;;;;;;7.94;73.43;95392.03;5052965;28;20028;-70
2022/11/09 03:30:24;;;;;;;28.60;20.42;;;;;;;7.82;73.41;95383.31;5053293;28;20021;-70
2022/11/09 03:32:49;;;;;;;31.15;21.85;;;;;;;7.49;73.35;95353.44;5052930;28;20094;-69
2022/11/09 03:35:15;;;;;;;29.90;20.42;;;;;;;7.50;73.42;95382.75;5069977;28;20448;-69
2022/11/09 03:37:40;;;;;;;30.08;19.70;;;;;;;7.44;73.64;95373.59;5036622;28;20086;-69
2022/11/09 03:40:06;;;;;;;28.48;19.95;;;;;;;7.42;73.59;95390.13;5069736;28;20039;-69
2022/11/09 03:42:32;;;;;;;28.85;19.27;;;;;;;7.52;72.99;95397.25;5035958;28;20532;-69
2022/11/09 03:44:57;;;;;;;30.77;19.42;;;;;;;7.31;72.94;95383.03;5069561;28;20025;-70
2022/11/09 03:47:23;;;;;;;31.67;19.90;;;;;;;7.16;73.71;95400.31;5069672;28;20063;-70
2022/11/09 03:49:48;;;;;;;30.75;20.15;;;;;;;7.06;73.91;95394.03;5069592;28;20028;-70
2022/11/09 03:52:13;;;;;;;32.90;20.52;;;;;;;7.21;74.11;95397.44;5069839;28;20034;-69
2022/11/09 03:54:39;;;;;;;35.08;22.08;;;;;;;7.24;74.32;95402.41;5069423;28;20037;-70
2022/11/09 03:57:04;;;;;;;30.65;19.95;;;;;;;7.25;74.49;95393.75;5053928;28;20048;-70
2022/11/09 03:59:30;;;;;;;32.80;20.10;;;;;;;7.11;74.49;95385.06;5049362;28;20471;-69
2022/11/09 04:01:55;;;;;;;31.02;19.75;;;;;;;7.10;74.09;95398.06;5051069;28;20025;-69
2022/11/09 04:04:21;;;;;;;34.17;21.17;;;;;;;6.97;74.23;95403.16;5049450;28;20033;-69
2022/11/09 04:06:46;;;;;;;34.63;21.48;;;;;;;6.92;74.40;95395.66;5049515;28;20041;-69
2022/11/09 04:09:11;;;;;;;33.50;19.95;;;;;;;6.90;74.63;95404.41;5049813;28;20108;-69
2022/11/09 04:11:37;;;;;;;34.55;21.42;;;;;;;6.77;74.53;95396.56;5050835;28;20449;-69
2022/11/09 04:14:02;;;;;;;31.50;20.55;;;;;;;6.70;74.63;95390.91;5049339;28;20060;-69
2022/11/09 04:16:28;;;;;;;30.67;20.83;;;;;;;6.71;74.69;95389.16;5032822;28;20048;-69
2022/11/09 04:18:53;;;;;;;28.05;19.40;;;;;;;6.84;75.12;95407.38;5049253;28;20025;-70
2022/11/09 04:21:19;;;;;;;30.30;19.55;;;;;;;6.83;75.42;95387.63;5050593;28;20025;-70
2022/11/09 04:23:45;;;;;;;29.17;19.52;;;;;;;6.91;75.70;95394.00;5050812;28;20066;-69
2022/11/09 04:26:10;;;;;;;33.03;20.60;;;;;;;6.87;76.00;95377.03;5049127;28;20052;-70
2022/11/09 04:28:36;;;;;;;32.67;20.35;;;;;;;7.05;76.43;95400.94;5049197;28;20476;-69
2022/11/09 04:31:01;;;;;;;32.22;20.70;;;;;;;7.06;76.77;95394.84;5032410;28;20060;-70
2022/11/09 04:33:27;;;;;;;32.20;20.45;;;;;;;7.06;76.41;95381.09;5032498;28;20525;-70
2022/11/09 04:35:52;;;;;;;29.63;19.67;;;;;;;7.06;76.14;95389.69;5032785;28;20678;-70
2022/11/09 04:38:18;;;;;;;36.60;22.73;;;;;;;7.03;75.84;95394.19;5037903;28;20029;-70
2022/11/09 04:40:43;;;;;;;37.42;21.80;;;;;;;7.00;75.89;95397.78;5054605;28;20029;-70
2022/11/09 04:43:11;;;;;;;32.38;22.05;;;;;;;6.94;75.78;95391.25;5064365;28;20302;-69
2022/11/09 04:45:37;;;;;;;28.98;20.00;;;;;;;7.02;76.20;95398.53;5073002;28;20032;-70
2022/11/09 04:48:03;;;;;;;28.83;20.00;;;;;;;7.00;75.69;95399.56;5072922;28;20028;-70
2022/11/09 04:50:29;;;;;;;29.08;19.52;;;;;;;6.93;75.21;95391.31;5073068;28;20024;-70
2022/11/09 04:53:02;;;;;;;30.52;19.67;;;;;;;6.88;75.04;95407.09;5042979;28;20432;-70
2022/11/09 04:55:28;;;;;;;32.00;19.70;;;;;;;6.79;75.23;95386.97;5037195;28;20021;-70
2022/11/09 04:57:53;;;;;;;28.85;18.70;;;;;;;6.84;75.23;95405.59;5036164;28;20090;-69
2022/11/09 05:00:19;;;;;;;29.75;18.80;;;;;;;6.87;74.86;95409.75;5053940;28;20079;-70
2022/11/09 05:02:44;;;;;;;29.70;20.02;;;;;;;6.80;75.14;95403.28;5054356;28;20032;-69
2022/11/09 05:05:09;;;;;;;30.80;20.10;;;;;;;6.75;74.94;95421.66;5036167;28;20029;-69
2022/11/09 05:07:35;;;;;;;30.92;18.92;;;;;;;6.56;74.96;95415.88;5069480;28;20036;-69
2022/11/09 05:10:01;;;;;;;30.30;20.48;;;;;;;6.44;75.23;95425.16;5072596;28;20540;-70
2022/11/09 05:12:26;;;;;;;30.73;19.15;;;;;;;6.46;74.93;95407.81;5074107;28;20036;-70
2022/11/09 05:14:52;;;;;;;29.27;19.40;;;;;;;6.57;74.78;95426.09;5072498;28;20040;-70
2022/11/09 05:17:17;;;;;;;29.58;19.00;;;;;;;6.52;75.01;95425.56;5064570;28;20593;-70
2022/11/09 05:19:43;;;;;;;30.60;19.70;;;;;;;6.57;75.32;95428.69;5053121;28;20071;-70
2022/11/09 05:24:52;;;;;;;27.52;17.77;;;;;;;6.32;75.37;95424.09;5053534;28;20091;-69
2022/11/09 05:27:18;;;;;;;29.15;18.60;;;;;;;6.46;75.12;95433.63;5053282;28;20079;-69
2022/11/09 05:29:43;;;;;;;27.20;18.42;;;;;;;6.39;75.16;95440.06;5072410;28;20474;-70
2022/11/09 05:32:08;;;;;;;29.85;19.30;;;;;;;6.38;75.45;95438.41;5067240;28;20492;-69
2022/11/09 05:34:34;;;;;;;28.23;17.92;;;;;;;6.31;75.47;95439.69;5059256;28;20433;-69
2022/11/09 05:36:59;;;;;;;30.73;19.50;;;;;;;6.39;75.49;95442.66;5072224;28;20060;-70
2022/11/09 05:39:25;;;;;;;30.00;19.70;;;;;;;6.23;76.08;95430.59;5071026;28;20059;-70
2022/11/09 05:41:50;;;;;;;29.83;18.38;;;;;;;6.30;76.33;95446.59;5073140;28;20029;-70
2022/11/09 05:44:16;;;;;;;30.40;19.40;;;;;;;6.40;76.36;95446.88;5069595;28;20490;-70
2022/11/09 05:46:41;;;;;;;29.98;19.20;;;;;;;6.39;76.70;95438.31;5064677;28;20044;-70
2022/11/09 05:49:07;;;;;;;30.98;19.40;;;;;;;6.55;76.86;95452.97;5068215;28;20028;-70
2022/11/09 05:51:32;;;;;;;30.40;19.30;;;;;;;6.54;76.97;95446.94;5072604;28;20056;-70
2022/11/09 05:53:58;;;;;;;29.10;19.42;;;;;;;6.53;76.98;95432.38;5054592;28;20032;-70
2022/11/09 05:56:23;;;;;;;31.50;20.30;;;;;;;6.61;77.29;95445.69;5071577;28;20120;-70
2022/11/09 05:58:48;;;;;;;31.25;19.25;;;;;;;6.81;77.07;95454.03;5036302;28;20025;-70
2022/11/09 06:01:15;;;;;;;28.38;18.33;;;;;;;6.84;76.69;95451.28;5066505;28;20036;-70
2022/11/09 06:03:42;;;;;;;29.77;19.83;;;;;;;6.89;76.72;95459.59;5054747;28;20040;-70
2022/11/09 06:06:09;;;;;;;32.35;19.75;;;;;;;6.92;76.21;95449.91;5054977;28;20039;-69
2022/11/09 06:08:36;;;;;;;30.27;18.83;;;;;;;6.91;76.63;95447.44;5054929;28;20059;-69
2022/11/09 06:11:03;;;;;;;26.92;18.35;;;;;;;7.03;76.93;95467.38;5038111;28;20457;-70
2022/11/09 06:13:29;;;;;;;32.38;20.13;;;;;;;7.14;76.89;95464.97;5071275;28;20108;-69
2022/11/09 06:15:55;;;;;;;33.67;20.40;;;;;;;7.21;76.73;95464.63;5054448;28;20036;-70
2022/11/09 06:18:24;;;;;;;32.92;20.05;;;;;;;7.30;76.50;95456.31;5050803;28;20013;-70
2022/11/09 06:20:51;;;;;;;28.25;18.25;;;;;;;7.31;76.22;95460.56;5035124;28;20131;-70
2022/11/09 06:23:17;;;;;;;28.98;18.77;;;;;;;7.36;76.52;95464.53;5051240;28;20098;-70
2022/11/09 06:25:42;;;;;;;31.20;19.92;;;;;;;7.37;76.83;95465.38;5053312;28;20033;-70
2022/11/09 06:28:08;;;;;;;30.10;19.30;;;;;;;7.35;76.82;95456.88;5064381;28;20028;-70
2022/11/09 06:30:33;;;;;;;32.55;20.00;;;;;;;7.46;77.05;95469.97;5070778;28;20033;-69
2022/11/09 06:33:02;;;;;;;35.03;20.25;;;;;;;7.43;76.72;95464.16;5071704;28;20032;-70
2022/11/09 06:35:27;;;;;;;30.58;21.00;;;;;;;7.49;77.02;95474.97;5066722;28;20021;-70
2022/11/09 06:37:55;;;;;;;36.95;23.15;;;;;;;7.56;77.23;95478.84;5037747;28;20025;-70
2022/11/09 06:40:20;;;;;;;35.47;22.67;;;;;;;7.65;77.02;95469.69;5037654;28;20035;-71
2022/11/09 06:42:46;;;;;;;36.08;23.30;;;;;;;7.77;76.98;95475.88;5062100;28;20033;-70
2022/11/09 06:45:11;;;;;;;79.75;36.55;;;;;;;7.82;76.78;95482.44;5070798;28;20025;-70
2022/11/09 06:47:37;;;;;;;126.68;51.88;;;;;;;7.88;76.95;95477.81;5070811;28;20036;-70
2022/11/09 06:50:02;;;;;;;125.97;51.05;;;;;;;7.95;77.08;95474.75;5037363;28;20086;-70
2022/11/09 06:52:28;;;;;;;184.38;64.55;;;;;;;8.04;76.81;95476.75;5068320;28;20029;-70
2022/11/09 06:54:53;;;;;;;117.40;46.05;;;;;;;8.19;76.38;95476.72;5068680;28;20097;-70
2022/11/09 06:57:19;;;;;;;80.40;37.45;;;;;;;8.25;76.15;95469.44;5070656;28;20024;-70
2022/11/09 06:59:44;;;;;;;50.45;28.58;;;;;;;8.24;76.12;95464.31;5071457;28;20037;-70
2022/11/09 07:02:12;;;;;;;59.90;32.72;;;;;;;8.33;76.11;95471.53;5053583;28;20041;-70
2022/11/09 07:04:38;;;;;;;61.30;33.63;;;;;;;8.47;76.07;95476.69;5053773;28;20071;-70
2022/11/09 07:07:03;;;;;;;57.67;31.40;;;;;;;8.64;75.60;95474.78;5064875;28;20036;-70
2022/11/09 07:09:29;;;;;;;53.47;30.75;;;;;;;8.84;75.12;95473.47;5050221;28;20046;-70
2022/11/09 07:11:54;;;;;;;45.75;27.95;;;;;;;9.05;74.77;95473.81;5054642;28;20028;-71
2022/11/09 07:14:21;;;;;;;48.72;28.20;;;;;;;9.47;73.96;95470.13;5069987;28;20044;-71
2022/11/09 07:16:46;;;;;;;48.63;27.55;;;;;;;10.05;72.19;95465.25;5048829;28;20033;-70
2022/11/09 07:19:12;;;;;;;50.60;28.67;;;;;;;10.59;70.58;95464.88;5032701;28;20037;-71
2022/11/09 07:21:37;;;;;;;44.58;27.85;;;;;;;11.03;68.95;95444.34;5055068;28;20095;-71
2022/11/09 07:24:02;;;;;;;48.38;29.90;;;;;;;11.56;67.57;95455.91;5051226;28;20146;-71
2022/11/09 07:26:28;;;;;;;46.58;29.75;;;;;;;11.98;65.86;95450.97;5065844;28;20029;-71
2022/11/09 07:28:53;;;;;;;41.65;28.35;;;;;;;12.48;64.70;95456.56;5051992;28;20033;-71
2022/11/09 07:31:19;;;;;;;45.63;28.08;;;;;;;12.93;62.92;95448.56;5052876;28;20049;-71
2022/11/09 07:33:45;;;;;;;41.58;25.85;;;;;;;13.43;61.29;95449.72;5049669;28;20036;-71
2022/11/09 07:36:10;;;;;;;44.17;25.70;;;;;;;13.84;60.06;95454.84;5068981;28;20056;-72
2022/11/09 07:38:35;;;;;;;36.13;24.10;;;;;;;14.21;58.84;95451.69;5048090;28;20040;-72
2022/11/09 07:41:01;;;;;;;33.90;23.80;;;;;;;14.56;57.80;95433.88;5062015;28;20040;-71
2022/11/09 07:43:27;;;;;;;45.25;29.30;;;;;;;14.64;57.67;95447.94;5033262;28;20024;-71
2022/11/09 07:45:53;;;;;;;39.75;28.13;;;;;;;14.03;58.47;95433.19;5064607;28;20029;-71
2022/11/09 07:48:18;;;;;;;42.00;29.33;;;;;;;13.94;59.33;95448.84;5069699;28;20406;-71
2022/11/09 07:50:43;;;;;;;43.25;28.95;;;;;;;13.81;60.13;95436.84;5069766;28;20154;-71
2022/11/09 07:53:11;;;;;;;39.97;29.67;;;;;;;13.55;60.91;95438.25;5053749;28;20036;-71
2022/11/09 07:55:36;;;;;;;40.17;27.83;;;;;;;13.58;61.31;95445.81;5062860;28;20056;-71
2022/11/09 07:58:06;;;;;;;42.20;28.63;;;;;;;13.52;61.86;95446.34;5068953;28;20032;-71
2022/11/09 08:00:33;;;;;;;37.95;27.05;;;;;;;13.43;61.52;95449.72;5051064;28;20498;-71
2022/11/09 08:02:59;;;;;;;42.38;27.85;;;;;;;13.10;62.40;95443.72;5067924;28;20028;-71
2022/11/09 08:05:24;;;;;;;41.67;26.92;;;;;;;13.17;62.52;95455.28;5068504;28;20029;-71
2022/11/09 08:07:56;;;;;;;40.25;26.92;;;;;;;13.07;62.67;95444.81;5050809;28;20051;-71
2022/11/09 08:10:23;;;;;;;38.45;25.02;;;;;;;13.18;63.05;95451.75;5048019;28;20039;-71
2022/11/09 08:12:55;;;;;;;43.03;27.17;;;;;;;13.12;63.14;95450.47;5033097;28;20029;-71
2022/11/09 08:15:21;;;;;;;35.38;24.95;;;;;;;13.21;62.68;95455.88;5036344;28;20032;-71
2022/11/09 08:17:46;;;;;;;40.55;26.50;;;;;;;13.05;63.20;95453.72;5036959;28;20029;-71
2022/11/09 08:20:12;;;;;;;40.55;25.77;;;;;;;12.79;63.61;95443.63;5055088;28;20545;-71
2022/11/09 08:22:43;;;;;;;36.50;26.27;;;;;;;12.75;63.54;95460.47;5068027;28;20083;-71
2022/11/09 08:25:09;;;;;;;34.63;25.40;;;;;;;12.61;63.45;95443.34;5054395;28;20404;-71
2022/11/09 08:27:38;;;;;;;33.53;24.48;;;;;;;12.56;64.15;95460.31;5052759;28;20111;-71
2022/11/09 08:30:05;;;;;;;36.00;25.38;;;;;;;12.37;64.94;95461.78;5054547;28;20021;-71
2022/11/09 08:32:31;;;;;;;36.58;25.80;;;;;;;12.39;64.86;95451.22;5053213;28;20477;-71
2022/11/09 08:34:56;;;;;;;38.38;26.08;;;;;;;12.43;64.85;95450.88;5036589;28;20549;-71
2022/11/09 08:37:21;;;;;;;39.00;26.35;;;;;;;12.44;65.19;95447.31;5054359;28;20044;-71
2022/11/09 08:39:47;;;;;;;38.88;25.95;;;;;;;12.80;63.84;95455.72;5048359;28;20028;-71
2022/11/09 08:42:12;;;;;;;34.83;24.70;;;;;;;13.01;63.35;95454.91;5053323;28;20047;-71
2022/11/09 08:44:38;;;;;;;38.83;26.05;;;;;;;13.08;63.56;95456.06;5054203;28;20060;-71
2022/11/09 08:47:03;;;;;;;35.25;24.70;;;;;;;13.25;62.25;95447.66;5053087;28;20086;-71
2022/11/09 08:49:29;;;;;;;40.85;27.38;;;;;;;13.34;61.88;95444.28;5057433;28;20021;-71
2022/11/09 08:51:54;;;;;;;38.58;25.63;;;;;;;13.44;61.83;95452.19;5037232;28;20419;-72
2022/11/09 08:54:20;;;;;;;32.17;24.20;;;;;;;13.63;61.17;95447.06;5061339;28;20058;-71
2022/11/09 08:56:45;;;;;;;39.83;26.10;;;;;;;13.61;61.21;95454.19;5070946;28;20044;-72
2022/11/09 08:59:11;;;;;;;35.22;25.58;;;;;;;13.70;60.94;95452.59;5070741;28;20036;-71
2022/11/09 09:01:36;;;;;;;36.42;25.25;;;;;;;13.91;59.72;95451.75;5054249;28;20044;-71
2022/11/09 09:04:02;;;;;;;35.60;23.80;;;;;;;13.78;59.90;95444.13;5069419;28;20036;-72
2022/11/09 09:06:27;;;;;;;36.92;25.63;;;;;;;13.67;60.30;95452.84;5063769;28;20486;-71
2022/11/09 09:08:52;;;;;;;35.28;24.60;;;;;;;13.59;60.25;95445.66;5036002;28;20498;-72
2022/11/09 09:11:18;;;;;;;32.53;23.45;;;;;;;13.85;59.74;95438.25;5053948;28;20502;-71
2022/11/09 09:13:43;;;;;;;36.63;24.73;;;;;;;13.98;59.75;95445.00;5035889;28;20108;-71
2022/11/09 09:16:13;;;;;;;33.92;25.00;;;;;;;13.69;59.46;95444.91;5053843;28;20067;-72
2022/11/09 09:18:39;;;;;;;33.88;23.95;;;;;;;13.78;59.65;95447.53;5052969;28;20087;-71
2022/11/09 09:21:06;;;;;;;32.90;22.35;;;;;;;14.04;58.55;95434.88;5066207;28;20032;-71
2022/11/09 09:23:31;;;;;;;35.20;23.73;;;;;;;14.26;57.67;95446.91;5052703;28;20021;-72
2022/11/09 09:25:56;;;;;;;34.78;24.05;;;;;;;13.98;58.23;95439.78;5054318;28;20028;-72
2022/11/09 09:28:22;;;;;;;30.95;22.85;;;;;;;14.16;58.35;95443.41;5035647;28;20025;-72
2022/11/09 09:30:47;;;;;;;35.15;23.75;;;;;;;14.38;57.40;95437.16;5053258;28;20499;-71
2022/11/09 09:33:13;;;;;;;34.65;23.05;;;;;;;14.46;57.57;95439.09;5053605;28;20475;-71
2022/11/09 09:35:38;;;;;;;33.25;23.60;;;;;;;14.32;57.79;95432.47;5019001;28;20021;-72
2022/11/09 09:38:04;;;;;;;34.63;24.90;;;;;;;14.53;57.30;95437.59;5035941;28;20029;-72
2022/11/09 09:40:37;;;;;;;32.97;22.52;;;;;;;14.66;56.92;95425.09;5051862;28;20029;-71
2022/11/09 09:43:02;;;;;;;30.95;23.55;;;;;;;14.58;56.81;95417.09;5035906;28;20053;-72
2022/11/09 09:45:31;;;;;;;31.05;23.02;;;;;;;14.91;55.82;95422.91;5060487;28;20460;-72
2022/11/09 09:48:11;;;;;;;34.17;23.25;;;;;;;14.84;56.25;95419.16;5049374;28;20021;-72
2022/11/09 09:50:43;;;;;;;31.30;21.98;;;;;;;14.93;54.98;95405.25;5052139;28;20033;-72
2022/11/09 09:53:41;;;;;;;34.15;23.33;;;;;;;14.96;55.62;95415.47;5035572;28;20029;-71
2022/11/09 09:56:36;;;;;;;29.92;22.38;;;;;;;14.72;55.86;95411.47;5051827;28;20102;-71
2022/11/09 09:59:40;;;;;;;31.08;22.58;;;;;;;14.68;55.92;95402.25;5051650;28;20019;-72
2022/11/09 10:02:34;;;;;;;28.73;20.60;;;;;;;14.84;55.62;95406.09;5050455;28;20045;-72
2022/11/09 10:05:01;;;;;;;34.28;22.52;;;;;;;14.63;55.63;95391.38;5032811;28;20100;-72
2022/11/09 10:07:54;;;;;;;31.05;21.48;;;;;;;15.00;54.90;95398.50;5028223;28;20048;-72
2022/11/09 10:10:43;;;;;;;29.80;19.08;;;;;;;15.18;54.59;95395.97;5051829;28;20025;-71
2022/11/09 10:13:33;;;;;;;28.75;20.42;;;;;;;14.94;54.35;95396.47;5055455;28;20056;-72
2022/11/09 10:16:14;;;;;;;31.57;21.57;;;;;;;14.92;54.44;95386.13;5072363;28;20036;-73
2022/11/09 10:19:11;;;;;;;29.90;20.88;;;;;;;14.84;54.52;95390.41;5071165;28;20171;-75
2022/11/09 10:22:15;;;;;;;25.90;19.15;;;;;;;15.19;54.18;95379.34;5047106;28;20029;-73
2022/11/09 10:25:17;;;;;;;28.58;20.67;;;;;;;15.34;53.67;95383.13;5051553;28;20473;-72
2022/11/09 10:28:02;;;;;;;28.17;20.42;;;;;;;15.44;54.25;95375.28;5052318;28;20044;-73
2022/11/09 10:30:28;;;;;;;25.77;19.70;;;;;;;15.57;53.84;95377.53;5067608;28;20025;-73
2022/11/09 10:33:14;;;;;;;30.73;20.75;;;;;;;15.59;53.47;95362.53;5048001;28;20132;-73
2022/11/09 10:36:02;;;;;;;26.02;19.88;;;;;;;15.78;53.08;95374.75;5071783;28;20036;-73
2022/11/09 10:38:32;;;;;;;27.17;19.42;;;;;;;15.81;53.13;95364.78;5055948;28;20033;-72
2022/11/09 10:41:25;;;;;;;29.95;20.95;;;;;;;15.91;52.05;95369.16;5054749;28;20032;-73
2022/11/09 10:43:50;;;;;;;30.63;19.70;;;;;;;15.94;52.38;95359.22;5038677;28;20024;-73
2022/11/09 10:46:16;;;;;;;27.15;19.73;;;;;;;15.80;51.59;95341.38;5053213;28;20511;-73
2022/11/09 10:48:41;;;;;;;27.73;19.95;;;;;;;15.95;51.96;95350.38;5071881;28;20483;-73
2022/11/09 10:51:30;;;;;;;25.70;19.35;;;;;;;16.12;51.90;95361.03;5054109;28;20040;-73
2022/11/09 10:54:22;;;;;;;26.50;18.88;;;;;;;16.07;51.33;95351.84;5053832;28;20671;-73
2022/11/09 10:56:51;;;;;;;24.58;19.05;;;;;;;16.14;51.69;95346.00;5068210;28;20122;-73
2022/11/09 10:59:38;;;;;;;25.77;17.73;;;;;;;16.21;51.42;95347.03;5037648;28;20028;-73
2022/11/09 11:02:25;;;;;;;30.73;18.42;;;;;;;16.23;50.35;95347.72;5042324;28;20043;-73
2022/11/09 11:05:17;;;;;;;24.73;18.80;;;;;;;16.28;50.56;95346.31;5051894;28;20166;-72
2022/11/09 11:07:43;;;;;;;28.88;18.40;;;;;;;16.19;50.77;95341.97;5066906;28;20029;-73
2022/11/09 11:10:14;;;;;;;26.30;19.75;;;;;;;16.23;50.41;95338.06;5034910;28;20029;-72
2022/11/09 11:12:45;;;;;;;24.98;17.83;;;;;;;16.22;50.20;95335.59;5051941;28;20037;-73
2022/11/09 11:15:34;;;;;;;25.98;18.17;;;;;;;16.34;50.23;95329.16;5050254;28;20064;-73
2022/11/09 11:18:00;;;;;;;21.75;17.17;;;;;;;16.38;50.35;95334.91;5051352;28;20083;-71
2022/11/09 11:20:30;;;;;;;29.30;17.60;;;;;;;16.46;49.76;95329.75;5033551;28;20033;-71
2022/11/09 11:23:18;;;;;;;24.93;18.57;;;;;;;16.45;49.64;95325.47;5050119;28;20039;-71
2022/11/09 11:25:52;;;;;;;23.38;16.48;;;;;;;16.47;49.60;95326.16;5059605;28;20457;-71
2022/11/09 11:28:42;;;;;;;24.52;17.60;;;;;;;16.42;49.49;95326.59;5071139;28;20033;-71
2022/11/09 11:31:13;;;;;;;23.67;17.05;;;;;;;16.45;49.62;95318.44;5064641;28;20064;-71